createdAt,value
2019-02-15T00:00:51.385Z,0
2019-02-15T00:01:53.495Z,0
2019-02-15T00:02:55.661Z,0
2019-02-15T00:03:57.844Z,0
2019-02-15T00:04:59.965Z,0
2019-02-15T00:06:02.079Z,0
2019-02-15T00:07:04.222Z,0
2019-02-15T00:08:06.388Z,0
2019-02-15T00:09:08.511Z,0
2019-02-15T00:10:11.311Z,0
2019-02-15T00:11:13.413Z,0
2019-02-15T00:12:15.540Z,0
2019-02-15T00:13:17.649Z,0
2019-02-15T00:14:19.767Z,0
2019-02-15T00:15:21.870Z,0
2019-02-15T00:16:24.000Z,0
2019-02-15T00:17:26.119Z,0
2019-02-15T00:18:30.443Z,0
2019-02-15T00:19:32.910Z,0
2019-02-15T00:20:35.030Z,0
2019-02-15T00:21:37.421Z,0
2019-02-15T00:22:39.527Z,0
2019-02-15T00:23:41.663Z,0
2019-02-15T00:24:43.785Z,0
2019-02-15T00:25:45.908Z,0
2019-02-15T00:26:48.082Z,0
2019-02-15T00:27:50.184Z,0
2019-02-15T00:28:52.313Z,0
2019-02-15T00:29:54.436Z,0
2019-02-15T00:30:56.546Z,0
2019-02-15T00:31:58.658Z,0
2019-02-15T00:33:01.173Z,0
2019-02-15T00:34:03.567Z,0
2019-02-15T00:35:05.705Z,0
2019-02-15T00:36:07.826Z,0
2019-02-15T00:37:10.222Z,0
2019-02-15T00:38:12.351Z,0
2019-02-15T00:39:14.489Z,0
2019-02-15T00:40:16.598Z,0
2019-02-15T00:41:18.721Z,0
2019-02-15T00:42:20.848Z,0
2019-02-15T00:43:23.869Z,0
2019-02-15T00:44:26.330Z,0
2019-02-15T00:45:28.439Z,0
2019-02-15T00:46:30.553Z,0
2019-02-15T00:47:32.655Z,0
2019-02-15T00:48:34.807Z,0
2019-02-15T00:49:36.924Z,0
2019-02-15T00:50:39.325Z,0
2019-02-15T00:51:41.466Z,0
2019-02-15T00:52:43.579Z,0
2019-02-15T00:53:45.966Z,0
2019-02-15T00:54:48.078Z,0
2019-02-15T00:55:50.204Z,0
2019-02-15T00:56:52.346Z,0
2019-02-15T00:57:54.757Z,0
2019-02-15T00:58:56.892Z,0
2019-02-15T00:59:59.020Z,0
2019-02-15T01:01:01.155Z,0
2019-02-15T01:02:03.301Z,0
2019-02-15T01:03:05.424Z,0
2019-02-15T01:04:07.552Z,0
2019-02-15T01:05:09.678Z,0
2019-02-15T01:06:11.813Z,0
2019-02-15T01:07:13.933Z,0
2019-02-15T01:08:16.066Z,0
2019-02-15T01:09:18.197Z,0
2019-02-15T01:10:20.304Z,0
2019-02-15T01:11:22.430Z,0
2019-02-15T01:12:24.568Z,0
2019-02-15T01:13:32.504Z,0
2019-02-15T01:14:34.626Z,0
2019-02-15T01:15:36.756Z,0
2019-02-15T01:16:39.196Z,0
2019-02-15T01:17:41.339Z,0
2019-02-15T01:18:43.453Z,0
2019-02-15T01:19:45.571Z,0
2019-02-15T01:20:47.679Z,0
2019-02-15T01:21:49.808Z,0
2019-02-15T01:22:51.916Z,0
2019-02-15T01:23:54.028Z,0
2019-02-15T01:24:56.169Z,0
2019-02-15T01:25:58.274Z,0
2019-02-15T01:27:00.403Z,0
2019-02-15T01:28:02.528Z,0
2019-02-15T01:29:04.652Z,0
2019-02-15T01:30:06.765Z,0
2019-02-15T01:31:08.910Z,0
2019-02-15T01:32:11.020Z,0
2019-02-15T01:33:13.125Z,0
2019-02-15T01:34:15.641Z,0
2019-02-15T01:35:17.743Z,0
2019-02-15T01:36:19.866Z,0
2019-02-15T01:37:21.999Z,0
2019-02-15T01:38:24.122Z,0
2019-02-15T01:39:26.249Z,0
2019-02-15T01:40:28.368Z,0
2019-02-15T01:41:30.476Z,0
2019-02-15T01:42:33.179Z,0
2019-02-15T01:43:41.642Z,0
2019-02-15T01:44:44.044Z,0
2019-02-15T01:45:46.155Z,0
2019-02-15T01:46:48.585Z,0
2019-02-15T01:47:50.996Z,0
2019-02-15T01:48:53.102Z,0
2019-02-15T01:49:55.235Z,0
2019-02-15T01:50:57.373Z,0
2019-02-15T01:51:59.788Z,0
2019-02-15T01:53:02.186Z,0
2019-02-15T01:54:04.321Z,0
2019-02-15T01:55:06.468Z,0
2019-02-15T01:56:08.607Z,0
2019-02-15T01:57:11.016Z,0
2019-02-15T01:58:13.424Z,0
2019-02-15T01:59:15.569Z,0
2019-02-15T02:00:17.669Z,0
2019-02-15T02:01:19.786Z,0
2019-02-15T02:02:22.193Z,0
2019-02-15T02:03:24.321Z,0
2019-02-15T02:04:26.433Z,0
2019-02-15T02:05:28.576Z,0
2019-02-15T02:06:30.698Z,0
2019-02-15T02:07:32.807Z,0
2019-02-15T02:08:35.221Z,0
2019-02-15T02:09:37.336Z,0
2019-02-15T02:10:39.766Z,0
2019-02-15T02:11:41.901Z,0
2019-02-15T02:12:44.394Z,0
2019-02-15T02:13:51.287Z,0
2019-02-15T02:14:53.398Z,0
2019-02-15T02:15:55.518Z,0
2019-02-15T02:16:57.652Z,0
2019-02-15T02:17:59.791Z,0
2019-02-15T02:19:02.482Z,0
2019-02-15T02:20:05.000Z,0
2019-02-15T02:21:07.159Z,0
2019-02-15T02:22:10.155Z,0
2019-02-15T02:23:12.283Z,0
2019-02-15T02:24:14.394Z,0
2019-02-15T02:25:16.817Z,0
2019-02-15T02:26:18.940Z,0
2019-02-15T02:27:21.075Z,0
2019-02-15T02:28:23.191Z,0
2019-02-15T02:29:25.388Z,0
2019-02-15T02:30:28.178Z,0
2019-02-15T02:31:30.634Z,0
2019-02-15T02:32:33.366Z,0
2019-02-15T02:33:35.485Z,0
2019-02-15T02:34:37.618Z,0
2019-02-15T02:35:39.726Z,0
2019-02-15T02:36:42.153Z,0
2019-02-15T02:37:44.278Z,0
2019-02-15T02:38:46.723Z,0
2019-02-15T02:39:49.251Z,0
2019-02-15T02:40:51.651Z,0
2019-02-15T02:41:53.778Z,0
2019-02-15T02:42:55.904Z,0
2019-02-15T02:44:01.310Z,0
2019-02-15T02:45:03.445Z,0
2019-02-15T02:46:05.569Z,0
2019-02-15T02:47:08.271Z,0
2019-02-15T02:48:10.817Z,0
2019-02-15T02:49:13.267Z,0
2019-02-15T02:50:15.726Z,0
2019-02-15T02:51:18.140Z,0
2019-02-15T02:52:20.306Z,0
2019-02-15T02:53:22.740Z,0
2019-02-15T02:54:25.868Z,0
2019-02-15T02:55:27.991Z,0
2019-02-15T02:56:30.121Z,0
2019-02-15T02:57:32.523Z,0
2019-02-15T02:58:35.033Z,0
2019-02-15T02:59:37.641Z,0
2019-02-15T03:00:40.822Z,0
2019-02-15T03:01:42.982Z,0
2019-02-15T03:02:45.105Z,0
2019-02-15T03:03:47.228Z,0
2019-02-15T03:04:49.345Z,0
2019-02-15T03:05:51.869Z,0
2019-02-15T03:06:54.671Z,0
2019-02-15T03:07:56.799Z,0
2019-02-15T03:09:00.018Z,0
2019-02-15T03:10:02.546Z,0
2019-02-15T03:11:04.673Z,0
2019-02-15T03:12:07.087Z,0
2019-02-15T03:13:09.206Z,0
2019-02-15T03:14:13.527Z,0
2019-02-15T03:15:15.951Z,0
2019-02-15T03:16:18.080Z,0
2019-02-15T03:17:20.497Z,0
2019-02-15T03:18:22.633Z,0
2019-02-15T03:19:25.105Z,0
2019-02-15T03:20:33.421Z,0
2019-02-15T03:21:35.966Z,0
2019-02-15T03:22:38.709Z,0
2019-02-15T03:23:41.703Z,0
2019-02-15T03:24:43.844Z,0
2019-02-15T03:25:45.989Z,0
2019-02-15T03:26:48.425Z,0
2019-02-15T03:27:50.952Z,0
2019-02-15T03:28:53.365Z,0
2019-02-15T03:29:55.538Z,0
2019-02-15T03:30:58.270Z,0
2019-02-15T03:32:01.003Z,0
2019-02-15T03:33:04.145Z,0
2019-02-15T03:34:06.704Z,0
2019-02-15T03:35:08.839Z,0
2019-02-15T03:36:11.286Z,0
2019-02-15T03:37:14.281Z,0
2019-02-15T03:38:16.853Z,0
2019-02-15T03:39:18.986Z,0
2019-02-15T03:40:21.393Z,0
2019-02-15T03:41:23.814Z,0
2019-02-15T03:42:26.254Z,0
2019-02-15T03:43:28.518Z,0
2019-02-15T03:44:30.662Z,0
2019-02-15T03:45:33.109Z,0
2019-02-15T03:46:35.245Z,0
2019-02-15T03:47:37.365Z,0
2019-02-15T03:48:40.480Z,0
2019-02-15T03:49:43.011Z,0
2019-02-15T03:50:45.408Z,0
2019-02-15T03:51:47.826Z,0
2019-02-15T03:52:49.989Z,0
2019-02-15T03:53:52.470Z,0
2019-02-15T03:54:54.991Z,0
2019-02-15T03:55:57.142Z,0
2019-02-15T03:56:59.277Z,0
2019-02-15T03:58:01.828Z,0
2019-02-15T03:59:04.283Z,0
2019-02-15T04:00:06.716Z,0
2019-02-15T04:01:09.236Z,0
2019-02-15T04:02:12.079Z,0
2019-02-15T04:03:14.246Z,0
2019-02-15T04:04:16.792Z,0
2019-02-15T04:05:18.917Z,0
2019-02-15T04:06:21.064Z,0
2019-02-15T04:07:23.172Z,0
2019-02-15T04:08:25.616Z,0
2019-02-15T04:09:28.031Z,0
2019-02-15T04:10:30.846Z,0
2019-02-15T04:11:32.981Z,0
2019-02-15T04:12:35.077Z,0
2019-02-15T04:13:37.511Z,0
2019-02-15T04:14:40.023Z,0
2019-02-15T04:15:43.332Z,0
2019-02-15T04:16:45.445Z,0
2019-02-15T04:17:47.873Z,0
2019-02-15T04:18:49.998Z,0
2019-02-15T04:19:52.128Z,0
2019-02-15T04:20:54.278Z,0
2019-02-15T04:21:56.722Z,0
2019-02-15T04:22:59.127Z,0
2019-02-15T04:24:01.277Z,0
2019-02-15T04:25:04.105Z,0
2019-02-15T04:26:06.247Z,0
2019-02-15T04:27:08.728Z,0
2019-02-15T04:28:11.310Z,0
2019-02-15T04:29:13.475Z,0
2019-02-15T04:30:15.923Z,0
2019-02-15T04:31:18.319Z,0
2019-02-15T04:32:20.726Z,0
2019-02-15T04:33:23.494Z,0
2019-02-15T04:34:25.905Z,0
2019-02-15T04:35:28.304Z,0
2019-02-15T04:36:30.448Z,0
2019-02-15T04:37:32.559Z,0
2019-02-15T04:38:34.694Z,0
2019-02-15T04:39:37.201Z,0
2019-02-15T04:40:39.621Z,0
2019-02-15T04:41:42.172Z,0
2019-02-15T04:42:45.135Z,0
2019-02-15T04:43:47.537Z,0
2019-02-15T04:44:50.242Z,0
2019-02-15T04:45:53.041Z,0
2019-02-15T04:46:55.207Z,0
2019-02-15T04:47:57.721Z,0
2019-02-15T04:48:59.877Z,0
2019-02-15T04:50:02.794Z,0
2019-02-15T04:51:05.628Z,0
2019-02-15T04:52:07.768Z,0
2019-02-15T04:53:10.166Z,0
2019-02-15T04:54:12.917Z,0
2019-02-15T04:55:15.722Z,0
2019-02-15T04:56:17.897Z,0
2019-02-15T04:57:20.640Z,0
2019-02-15T04:58:22.768Z,0
2019-02-15T04:59:25.181Z,0
2019-02-15T05:00:27.651Z,0
2019-02-15T05:01:29.769Z,0
2019-02-15T05:02:31.939Z,0
2019-02-15T05:03:34.368Z,0
2019-02-15T05:04:36.483Z,0
2019-02-15T05:05:38.598Z,0
2019-02-15T05:06:40.733Z,0
2019-02-15T05:07:43.479Z,0
2019-02-15T05:08:45.879Z,0
2019-02-15T05:09:48.612Z,0
2019-02-15T05:10:51.015Z,0
2019-02-15T05:11:53.162Z,0
2019-02-15T05:12:55.277Z,0
2019-02-15T05:13:57.711Z,0
2019-02-15T05:15:00.092Z,0
2019-02-15T05:16:02.912Z,0
2019-02-15T05:17:05.072Z,0
2019-02-15T05:18:07.230Z,0
2019-02-15T05:19:09.726Z,0
2019-02-15T05:20:12.501Z,0
2019-02-15T05:21:14.631Z,0
2019-02-15T05:22:16.753Z,0
2019-02-15T05:23:18.868Z,0
2019-02-15T05:24:21.000Z,0
2019-02-15T05:25:23.119Z,0
2019-02-15T05:26:25.257Z,0
2019-02-15T05:27:27.398Z,0
2019-02-15T05:28:29.778Z,0
2019-02-15T05:29:32.188Z,0
2019-02-15T05:30:34.609Z,0
2019-02-15T05:31:36.800Z,0
2019-02-15T05:32:38.907Z,0
2019-02-15T05:33:41.329Z,0
2019-02-15T05:34:43.456Z,0
2019-02-15T05:35:46.182Z,0
2019-02-15T05:36:48.603Z,0
2019-02-15T05:37:51.016Z,0
2019-02-15T05:38:53.503Z,0
2019-02-15T05:39:55.648Z,0
2019-02-15T05:40:58.345Z,0
2019-02-15T05:42:01.132Z,0
2019-02-15T05:43:03.579Z,0
2019-02-15T05:44:06.295Z,0
2019-02-15T05:45:08.747Z,0
2019-02-15T05:46:11.251Z,0
2019-02-15T05:47:14.058Z,0
2019-02-15T05:48:16.483Z,0
2019-02-15T05:49:18.907Z,0
2019-02-15T05:50:21.302Z,0
2019-02-15T05:51:23.807Z,0
2019-02-15T05:52:26.337Z,0
2019-02-15T05:53:28.451Z,0
2019-02-15T05:54:30.852Z,0
2019-02-15T05:55:32.977Z,0
2019-02-15T05:56:35.485Z,0
2019-02-15T05:57:37.608Z,0
2019-02-15T05:58:40.131Z,0
2019-02-15T05:59:42.935Z,0
2019-02-15T06:00:45.101Z,0
2019-02-15T06:01:47.324Z,0
2019-02-15T06:02:49.595Z,0
2019-02-15T06:03:51.723Z,0
2019-02-15T06:04:54.852Z,0
2019-02-15T06:05:57.936Z,0
2019-02-15T06:07:00.653Z,0
2019-02-15T06:08:03.160Z,0
2019-02-15T06:09:05.893Z,0
2019-02-15T06:10:08.326Z,0
2019-02-15T06:11:11.784Z,0
2019-02-15T06:12:14.589Z,0
2019-02-15T06:13:17.336Z,0
2019-02-15T06:14:19.448Z,0
2019-02-15T06:15:21.564Z,0
2019-02-15T06:16:23.988Z,0
2019-02-15T06:17:26.102Z,0
2019-02-15T06:18:28.252Z,0
2019-02-15T06:19:30.394Z,0
2019-02-15T06:20:32.857Z,0
2019-02-15T06:21:35.560Z,0
2019-02-15T06:22:37.982Z,0
2019-02-15T06:23:40.125Z,0
2019-02-15T06:24:42.225Z,0
2019-02-15T06:25:44.694Z,0
2019-02-15T06:26:46.810Z,1
2019-02-15T06:27:49.211Z,1
2019-02-15T06:28:51.730Z,1
2019-02-15T06:29:54.164Z,1
2019-02-15T06:30:56.668Z,1
2019-02-15T06:31:58.800Z,1
2019-02-15T06:33:00.917Z,1
2019-02-15T06:34:03.019Z,1
2019-02-15T06:35:05.550Z,2
2019-02-15T06:36:07.657Z,2
2019-02-15T06:37:09.765Z,2
2019-02-15T06:38:11.882Z,2
2019-02-15T06:39:14.021Z,2
2019-02-15T06:40:16.126Z,3
2019-02-15T06:41:18.939Z,3
2019-02-15T06:42:21.349Z,3
2019-02-15T06:43:23.760Z,3
2019-02-15T06:44:25.899Z,3
2019-02-15T06:45:28.056Z,4
2019-02-15T06:46:30.151Z,4
2019-02-15T06:47:32.553Z,4
2019-02-15T06:48:34.669Z,4
2019-02-15T06:49:36.792Z,4
2019-02-15T06:50:39.232Z,5
2019-02-15T06:51:41.350Z,5
2019-02-15T06:52:43.782Z,5
2019-02-15T06:53:46.222Z,5
2019-02-15T06:54:48.496Z,6
2019-02-15T06:55:50.990Z,6
2019-02-15T06:56:53.106Z,6
2019-02-15T06:57:55.615Z,7
2019-02-15T06:58:57.717Z,7
2019-02-15T06:59:59.835Z,7
2019-02-15T07:01:02.623Z,8
2019-02-15T07:02:04.749Z,8
2019-02-15T07:03:07.128Z,8
2019-02-15T07:04:09.253Z,8
2019-02-15T07:05:11.364Z,8
2019-02-15T07:06:14.146Z,9
2019-02-15T07:07:16.574Z,9
2019-02-15T07:08:18.991Z,9
2019-02-15T07:09:21.115Z,10
2019-02-15T07:10:23.519Z,10
2019-02-15T07:11:25.644Z,10
2019-02-15T07:12:28.030Z,11
2019-02-15T07:13:30.148Z,11
2019-02-15T07:14:32.327Z,11
2019-02-15T07:15:35.694Z,12
2019-02-15T07:16:37.806Z,12
2019-02-15T07:17:40.213Z,12
2019-02-15T07:18:42.333Z,12
2019-02-15T07:19:45.505Z,13
2019-02-15T07:20:48.274Z,13
2019-02-15T07:21:50.395Z,13
2019-02-15T07:22:52.804Z,13
2019-02-15T07:23:54.933Z,13
2019-02-15T07:24:57.430Z,14
2019-02-15T07:25:59.842Z,17
2019-02-15T07:27:02.230Z,27
2019-02-15T07:28:04.658Z,37
2019-02-15T07:29:06.761Z,37
2019-02-15T07:30:08.916Z,41
2019-02-15T07:31:11.315Z,44
2019-02-15T07:32:13.734Z,52
2019-02-15T07:33:15.904Z,60
2019-02-15T07:34:18.031Z,60
2019-02-15T07:35:20.888Z,59
2019-02-15T07:36:23.014Z,61
2019-02-15T07:37:25.149Z,65
2019-02-15T07:38:27.944Z,67
2019-02-15T07:39:30.054Z,68
2019-02-15T07:40:32.182Z,68
2019-02-15T07:41:34.566Z,67
2019-02-15T07:42:36.679Z,69
2019-02-15T07:43:38.814Z,70
2019-02-15T07:44:40.934Z,69
2019-02-15T07:45:44.729Z,71
2019-02-15T07:46:47.631Z,74
2019-02-15T07:47:49.745Z,72
2019-02-15T07:48:52.181Z,74
2019-02-15T07:49:54.308Z,77
2019-02-15T07:50:56.739Z,78
2019-02-15T07:51:58.870Z,79
2019-02-15T07:53:00.988Z,80
2019-02-15T07:54:03.433Z,81
2019-02-15T07:55:05.571Z,81
2019-02-15T07:56:08.026Z,68
2019-02-15T07:57:10.162Z,72
2019-02-15T07:58:12.576Z,88
2019-02-15T07:59:14.987Z,90
2019-02-15T08:00:17.484Z,90
2019-02-15T08:01:20.039Z,89
2019-02-15T08:02:22.846Z,88
2019-02-15T08:03:24.971Z,88
2019-02-15T08:04:27.113Z,88
2019-02-15T08:05:29.604Z,88
2019-02-15T08:06:31.746Z,89
2019-02-15T08:07:34.250Z,92
2019-02-15T08:08:36.381Z,97
2019-02-15T08:09:38.492Z,100
2019-02-15T08:10:40.916Z,101
2019-02-15T08:11:43.040Z,102
2019-02-15T08:12:45.801Z,102
2019-02-15T08:13:48.217Z,102
2019-02-15T08:14:50.334Z,104
2019-02-15T08:15:53.975Z,106
2019-02-15T08:16:56.120Z,105
2019-02-15T08:17:58.245Z,108
2019-02-15T08:19:00.761Z,109
2019-02-15T08:20:02.897Z,107
2019-02-15T08:21:05.022Z,113
2019-02-15T08:22:07.544Z,119
2019-02-15T08:23:09.688Z,117
2019-02-15T08:24:12.382Z,116
2019-02-15T08:25:14.522Z,110
2019-02-15T08:26:16.666Z,105
2019-02-15T08:27:18.807Z,111
2019-02-15T08:28:20.927Z,114
2019-02-15T08:29:23.043Z,120
2019-02-15T08:30:25.499Z,123
2019-02-15T08:31:27.634Z,124
2019-02-15T08:32:29.779Z,127
2019-02-15T08:33:32.314Z,124
2019-02-15T08:34:34.467Z,116
2019-02-15T08:35:36.890Z,117
2019-02-15T08:36:39.441Z,126
2019-02-15T08:37:42.154Z,128
2019-02-15T08:38:44.273Z,132
2019-02-15T08:39:46.457Z,131
2019-02-15T08:40:48.826Z,136
2019-02-15T08:42:06.028Z,136
2019-02-15T08:43:08.471Z,142
2019-02-15T08:44:11.206Z,145
2019-02-15T08:45:14.623Z,136
2019-02-15T08:46:17.484Z,136
2019-02-15T08:47:19.635Z,136
2019-02-15T08:48:22.049Z,135
2019-02-15T08:49:24.176Z,141
2019-02-15T08:50:26.997Z,138
2019-02-15T08:51:29.421Z,141
2019-02-15T08:52:31.544Z,148
2019-02-15T08:53:33.989Z,152
2019-02-15T08:54:36.546Z,153
2019-02-15T08:55:38.972Z,157
2019-02-15T08:56:41.115Z,155
2019-02-15T08:57:43.253Z,150
2019-02-15T08:58:45.428Z,158
2019-02-15T08:59:47.580Z,157
2019-02-15T09:00:50.000Z,163
2019-02-15T09:01:52.132Z,166
2019-02-15T09:02:54.282Z,164
2019-02-15T09:03:56.715Z,170
2019-02-15T09:04:59.209Z,171
2019-02-15T09:06:01.344Z,167
2019-02-15T09:07:04.085Z,168
2019-02-15T09:08:06.204Z,169
2019-02-15T09:09:08.366Z,164
2019-02-15T09:10:10.507Z,160
2019-02-15T09:11:13.025Z,160
2019-02-15T09:12:15.180Z,167
2019-02-15T09:13:17.300Z,171
2019-02-15T09:14:19.430Z,169
2019-02-15T09:15:21.574Z,166
2019-02-15T09:16:24.119Z,167
2019-02-15T09:17:28.174Z,170
2019-02-15T09:18:30.712Z,177
2019-02-15T09:19:32.852Z,187
2019-02-15T09:20:34.979Z,187
2019-02-15T09:21:37.125Z,179
2019-02-15T09:22:39.254Z,190
2019-02-15T09:23:41.382Z,201
2019-02-15T09:24:43.530Z,197
2019-02-15T09:25:45.677Z,195
2019-02-15T09:26:48.017Z,196
2019-02-15T09:27:50.469Z,197
2019-02-15T09:28:52.602Z,195
2019-02-15T09:29:54.724Z,187
2019-02-15T09:30:56.859Z,192
2019-02-15T09:31:59.303Z,199
2019-02-15T09:33:01.710Z,195
2019-02-15T09:34:03.867Z,200
2019-02-15T09:35:06.019Z,202
2019-02-15T09:36:08.450Z,206
2019-02-15T09:37:10.898Z,209
2019-02-15T09:38:14.268Z,208
2019-02-15T09:39:16.406Z,205
2019-02-15T09:40:18.572Z,209
2019-02-15T09:41:20.739Z,219
2019-02-15T09:42:22.863Z,215
2019-02-15T09:43:30.031Z,217
2019-02-15T09:44:40.371Z,215
2019-02-15T09:45:51.196Z,209
2019-02-15T09:46:59.942Z,200
2019-02-15T09:48:07.875Z,202
2019-02-15T09:49:17.139Z,208
2019-02-15T09:50:22.229Z,214
2019-02-15T09:51:25.505Z,207
2019-02-15T09:52:27.656Z,209
2019-02-15T09:53:32.087Z,210
2019-02-15T09:54:41.058Z,203
2019-02-15T09:55:47.727Z,206
2019-02-15T09:56:55.216Z,214
2019-02-15T09:58:04.510Z,217
2019-02-15T09:59:13.689Z,211
2019-02-15T10:00:22.218Z,221
2019-02-15T10:01:33.079Z,227
2019-02-15T10:02:42.177Z,226
2019-02-15T10:03:52.032Z,215
2019-02-15T10:05:01.619Z,211
2019-02-15T10:06:10.826Z,219
2019-02-15T10:07:20.075Z,230
2019-02-15T10:08:30.825Z,226
2019-02-15T10:09:41.742Z,225
2019-02-15T10:10:51.329Z,230
2019-02-15T10:12:00.441Z,234
2019-02-15T10:13:09.258Z,231
2019-02-15T10:14:18.640Z,220
2019-02-15T10:15:26.238Z,223
2019-02-15T10:16:37.469Z,227
2019-02-15T10:17:48.442Z,228
2019-02-15T10:18:56.803Z,224
2019-02-15T10:20:07.659Z,233
2019-02-15T10:21:16.190Z,227
2019-02-15T10:22:26.838Z,226
2019-02-15T10:23:35.376Z,227
2019-02-15T10:24:44.922Z,227
2019-02-15T10:25:53.662Z,237
2019-02-15T10:27:03.426Z,230
2019-02-15T10:28:12.619Z,222
2019-02-15T10:29:24.142Z,235
2019-02-15T10:30:35.409Z,223
2019-02-15T10:31:44.005Z,216
2019-02-15T10:32:53.322Z,213
2019-02-15T10:34:02.578Z,235
2019-02-15T10:35:12.026Z,234
2019-02-15T10:36:24.412Z,236
2019-02-15T10:37:35.398Z,237
2019-02-15T10:38:44.450Z,235
2019-02-15T10:39:53.441Z,237
2019-02-15T10:41:03.152Z,230
2019-02-15T10:42:14.732Z,243
2019-02-15T10:43:24.769Z,243
2019-02-15T10:44:34.576Z,246
2019-02-15T10:45:45.059Z,242
2019-02-15T10:46:54.330Z,230
2019-02-15T10:48:06.178Z,224
2019-02-15T10:49:15.501Z,230
2019-02-15T10:50:25.361Z,249
2019-02-15T10:51:34.817Z,250
2019-02-15T10:52:46.762Z,229
2019-02-15T10:53:56.717Z,231
2019-02-15T10:55:06.934Z,242
2019-02-15T10:56:17.282Z,253
2019-02-15T10:57:25.602Z,244
2019-02-15T10:58:36.147Z,245
2019-02-15T10:59:45.227Z,242
2019-02-15T11:00:54.958Z,242
2019-02-15T11:02:04.009Z,234
2019-02-15T11:03:12.859Z,241
2019-02-15T11:04:21.994Z,249
2019-02-15T11:05:31.493Z,257
2019-02-15T11:06:40.976Z,258
2019-02-15T11:08:18.248Z,261
2019-02-15T11:09:27.159Z,261
2019-02-15T11:10:38.408Z,259
2019-02-15T11:11:48.455Z,250
2019-02-15T11:12:56.585Z,249
2019-02-15T11:14:05.109Z,262
2019-02-15T11:15:13.563Z,254
2019-02-15T11:16:22.534Z,264
2019-02-15T11:17:31.025Z,256
2019-02-15T11:18:39.125Z,262
2019-02-15T11:19:47.675Z,251
2019-02-15T11:20:55.180Z,237
2019-02-15T11:21:57.343Z,248
2019-02-15T11:22:59.490Z,253
2019-02-15T11:24:01.839Z,250
2019-02-15T11:25:08.424Z,260
2019-02-15T11:26:25.523Z,265
2019-02-15T11:27:33.665Z,266
2019-02-15T11:28:42.369Z,263
2019-02-15T11:29:50.509Z,257
2019-02-15T11:30:58.742Z,263
2019-02-15T11:32:07.257Z,261
2019-02-15T11:33:16.317Z,247
2019-02-15T11:34:26.120Z,247
2019-02-15T11:35:34.506Z,255
2019-02-15T11:36:42.721Z,259
2019-02-15T11:37:51.429Z,268
2019-02-15T11:39:00.531Z,269
2019-02-15T11:40:07.521Z,257
2019-02-15T11:41:18.353Z,257
2019-02-15T11:42:27.313Z,272
2019-02-15T11:43:35.118Z,274
2019-02-15T11:44:44.013Z,272
2019-02-15T11:45:46.984Z,251
2019-02-15T11:46:58.380Z,255
2019-02-15T11:48:01.074Z,240
2019-02-15T11:49:03.528Z,246
2019-02-15T11:50:05.676Z,249
2019-02-15T11:51:07.808Z,254
2019-02-15T11:52:10.013Z,258
2019-02-15T11:53:12.537Z,263
2019-02-15T11:54:25.689Z,274
2019-02-15T11:55:27.860Z,264
2019-02-15T11:56:30.097Z,258
2019-02-15T11:57:32.264Z,251
2019-02-15T11:58:34.412Z,247
2019-02-15T11:59:36.826Z,254
2019-02-15T12:00:39.339Z,265
2019-02-15T12:01:41.788Z,261
2019-02-15T12:02:44.316Z,258
2019-02-15T12:03:46.965Z,263
2019-02-15T12:04:49.374Z,255
2019-02-15T12:05:51.956Z,253
2019-02-15T12:06:54.107Z,260
2019-02-15T12:07:56.746Z,258
2019-02-15T12:08:58.891Z,259
2019-02-15T12:10:01.210Z,262
2019-02-15T12:11:03.420Z,261
2019-02-15T12:12:12.247Z,259
2019-02-15T12:13:15.539Z,264
2019-02-15T12:14:18.634Z,273
2019-02-15T12:15:21.693Z,263
2019-02-15T12:16:24.195Z,249
2019-02-15T12:17:28.087Z,251
2019-02-15T12:18:31.564Z,255
2019-02-15T12:19:35.238Z,263
2019-02-15T12:20:38.399Z,272
2019-02-15T12:21:41.884Z,275
2019-02-15T12:22:45.059Z,266
2019-02-15T12:23:50.656Z,258
2019-02-15T12:24:53.778Z,263
2019-02-15T12:25:58.021Z,260
2019-02-15T12:27:02.032Z,242
2019-02-15T12:28:06.543Z,234
2019-02-15T12:29:10.816Z,239
2019-02-15T12:30:14.583Z,227
2019-02-15T12:31:17.272Z,231
2019-02-15T12:32:20.779Z,237
2019-02-15T12:33:24.976Z,239
2019-02-15T12:34:29.012Z,254
2019-02-15T12:35:31.929Z,242
2019-02-15T12:36:35.768Z,239
2019-02-15T12:37:38.222Z,235
2019-02-15T12:38:40.475Z,241
2019-02-15T12:39:43.251Z,240
2019-02-15T12:40:45.496Z,230
2019-02-15T12:41:48.217Z,231
2019-02-15T12:42:51.377Z,227
2019-02-15T12:43:53.917Z,224
2019-02-15T12:44:56.615Z,233
2019-02-15T12:45:58.824Z,233
2019-02-15T12:47:01.221Z,234
2019-02-15T12:48:03.740Z,242
2019-02-15T12:49:06.312Z,234
2019-02-15T12:50:10.035Z,237
2019-02-15T12:51:12.263Z,235
2019-02-15T12:52:14.729Z,233
2019-02-15T12:53:16.897Z,230
2019-02-15T12:54:19.429Z,224
2019-02-15T12:55:22.086Z,225
2019-02-15T12:56:25.329Z,224
2019-02-15T12:57:27.574Z,219
2019-02-15T12:58:31.140Z,219
2019-02-15T12:59:33.482Z,228
2019-02-15T13:00:35.858Z,231
2019-02-15T13:01:38.143Z,233
2019-02-15T13:02:40.621Z,223
2019-02-15T13:03:43.274Z,216
2019-02-15T13:04:45.609Z,217
2019-02-15T13:05:47.745Z,208
2019-02-15T13:06:50.222Z,194
2019-02-15T13:07:52.576Z,186
2019-02-15T13:08:55.351Z,175
2019-02-15T13:09:58.507Z,163
2019-02-15T13:11:00.852Z,165
2019-02-15T13:12:03.342Z,167
2019-02-15T13:13:06.313Z,162
2019-02-15T13:14:08.448Z,165
2019-02-15T13:15:11.006Z,166
2019-02-15T13:16:13.164Z,181
2019-02-15T13:17:26.094Z,187
2019-02-15T13:18:28.664Z,188
2019-02-15T13:19:31.111Z,173
2019-02-15T13:20:33.257Z,133
2019-02-15T13:21:35.430Z,124
2019-02-15T13:22:37.634Z,119
2019-02-15T13:23:39.770Z,125
2019-02-15T13:24:44.570Z,139
2019-02-15T13:25:46.715Z,154
2019-02-15T13:26:49.486Z,152
2019-02-15T13:27:51.912Z,135
2019-02-15T13:28:54.116Z,123
2019-02-15T13:29:56.245Z,131
2019-02-15T13:30:58.457Z,142
2019-02-15T13:32:00.923Z,127
2019-02-15T13:33:03.104Z,159
2019-02-15T13:34:05.584Z,140
2019-02-15T13:35:08.397Z,130
2019-02-15T13:36:10.841Z,147
2019-02-15T13:37:12.978Z,140
2019-02-15T13:38:15.129Z,115
2019-02-15T13:39:17.966Z,72
2019-02-15T13:40:20.138Z,122
2019-02-15T13:41:25.282Z,140
2019-02-15T13:42:27.731Z,145
2019-02-15T13:43:30.178Z,141
2019-02-15T13:44:32.355Z,135
2019-02-15T13:45:34.917Z,147
2019-02-15T13:46:37.349Z,186
2019-02-15T13:47:39.515Z,172
2019-02-15T13:48:42.061Z,161
2019-02-15T13:49:44.605Z,129
2019-02-15T13:50:46.750Z,124
2019-02-15T13:51:49.657Z,108
2019-02-15T13:52:54.609Z,99
2019-02-15T13:53:57.028Z,98
2019-02-15T13:54:59.600Z,134
2019-02-15T13:56:02.457Z,137
2019-02-15T13:57:04.914Z,145
2019-02-15T13:58:07.091Z,133
2019-02-15T13:59:09.521Z,111
2019-02-15T14:00:11.699Z,99
2019-02-15T14:01:14.134Z,115
2019-02-15T14:02:16.331Z,91
2019-02-15T14:03:18.792Z,87
2019-02-15T14:04:21.635Z,96
2019-02-15T14:05:24.544Z,92
2019-02-15T14:06:26.960Z,91
2019-02-15T14:07:29.310Z,63
2019-02-15T14:08:31.609Z,60
2019-02-15T14:09:34.554Z,59
2019-02-15T14:10:37.144Z,66
2019-02-15T14:11:39.702Z,94
2019-02-15T14:12:41.957Z,89
2019-02-15T14:13:44.704Z,77
2019-02-15T14:14:46.879Z,76
2019-02-15T14:15:49.742Z,99
2019-02-15T14:16:52.190Z,102
2019-02-15T14:17:54.734Z,80
2019-02-15T14:18:57.241Z,37
2019-02-15T14:19:59.403Z,39
2019-02-15T14:21:01.547Z,51
2019-02-15T14:22:03.696Z,53
2019-02-15T14:23:06.354Z,48
2019-02-15T14:24:09.205Z,40
2019-02-15T14:25:11.801Z,34
2019-02-15T14:26:14.238Z,31
2019-02-15T14:27:16.813Z,31
2019-02-15T14:28:19.267Z,38
2019-02-15T14:29:21.733Z,39
2019-02-15T14:30:23.979Z,33
2019-02-15T14:31:26.415Z,31
2019-02-15T14:32:28.564Z,29
2019-02-15T14:33:31.141Z,27
2019-02-15T14:34:33.783Z,28
2019-02-15T14:35:35.940Z,31
2019-02-15T14:36:38.674Z,30
2019-02-15T14:37:41.136Z,28
2019-02-15T14:38:43.314Z,29
2019-02-15T14:39:52.750Z,28
2019-02-15T14:40:55.491Z,28
2019-02-15T14:41:58.237Z,28
2019-02-15T14:43:00.406Z,28
2019-02-15T14:44:03.329Z,28
2019-02-15T14:45:05.778Z,28
2019-02-15T14:46:07.944Z,28
2019-02-15T14:47:10.791Z,28
2019-02-15T14:48:13.208Z,29
2019-02-15T14:49:15.371Z,30
2019-02-15T14:50:17.519Z,28
2019-02-15T14:51:19.930Z,28
2019-02-15T14:52:22.489Z,31
2019-02-15T14:53:24.729Z,37
2019-02-15T14:54:27.156Z,43
2019-02-15T14:55:29.313Z,49
2019-02-15T14:56:31.743Z,50
2019-02-15T14:57:34.200Z,42
2019-02-15T14:58:36.384Z,41
2019-02-15T14:59:40.958Z,48
2019-02-15T15:00:43.078Z,47
2019-02-15T15:01:45.805Z,41
2019-02-15T15:02:47.950Z,36
2019-02-15T15:03:50.101Z,29
2019-02-15T15:04:52.911Z,28
2019-02-15T15:05:56.456Z,27
2019-02-15T15:06:58.879Z,26